sensor_id;sensor_type;location;lat;lon;timestamp;temperature;humidity
28071;DHT22;15383;48.408;9.968;2022-12-20T00:01:52;13.80;86.00
28071;DHT22;15383;48.408;9.968;2022-12-20T00:04:17;13.90;86.00
28071;DHT22;15383;48.408;9.968;2022-12-20T00:06:43;13.80;86.00
28071;DHT22;15383;48.408;9.968;2022-12-20T00:09:10;13.80;86.00
28071;DHT22;15383;48.408;9.968;2022-12-20T00:11:38;13.80;85.90
28071;DHT22;15383;48.408;9.968;2022-12-20T00:14:04;13.90;86.00
28071;DHT22;15383;48.408;9.968;2022-12-20T00:16:29;13.80;86.00
28071;DHT22;15383;48.408;9.968;2022-12-20T00:18:58;13.80;86.00
28071;DHT22;15383;48.408;9.968;2022-12-20T00:21:24;13.80;86.10
28071;DHT22;15383;48.408;9.968;2022-12-20T00:23:51;13.80;86.10
28071;DHT22;15383;48.408;9.968;2022-12-20T00:26:20;13.80;86.10
28071;DHT22;15383;48.408;9.968;2022-12-20T00:28:46;13.80;86.30
28071;DHT22;15383;48.408;9.968;2022-12-20T00:31:13;13.80;86.30
28071;DHT22;15383;48.408;9.968;2022-12-20T00:33:40;13.80;86.30
28071;DHT22;15383;48.408;9.968;2022-12-20T00:36:06;13.80;86.20
28071;DHT22;15383;48.408;9.968;2022-12-20T00:38:32;13.80;86.30
28071;DHT22;15383;48.408;9.968;2022-12-20T00:41:19;13.80;86.40
28071;DHT22;15383;48.408;9.968;2022-12-20T00:43:46;13.80;86.40
28071;DHT22;15383;48.408;9.968;2022-12-20T00:46:13;13.80;86.50
28071;DHT22;15383;48.408;9.968;2022-12-20T00:48:39;13.80;86.50
28071;DHT22;15383;48.408;9.968;2022-12-20T00:51:08;13.80;86.50
28071;DHT22;15383;48.408;9.968;2022-12-20T00:53:34;13.80;86.40
28071;DHT22;15383;48.408;9.968;2022-12-20T00:56:00;13.80;86.40
28071;DHT22;15383;48.408;9.968;2022-12-20T00:58:26;13.80;86.40
28071;DHT22;15383;48.408;9.968;2022-12-20T01:00:52;13.80;86.50
28071;DHT22;15383;48.408;9.968;2022-12-20T01:03:18;13.80;86.50
28071;DHT22;15383;48.408;9.968;2022-12-20T01:05:59;13.80;86.80
28071;DHT22;15383;48.408;9.968;2022-12-20T01:08:25;13.80;87.00
28071;DHT22;15383;48.408;9.968;2022-12-20T01:11:02;13.80;87.00
28071;DHT22;15383;48.408;9.968;2022-12-20T01:13:29;13.80;87.20
28071;DHT22;15383;48.408;9.968;2022-12-20T01:15:55;13.80;87.10
28071;DHT22;15383;48.408;9.968;2022-12-20T01:18:21;13.80;87.20
28071;DHT22;15383;48.408;9.968;2022-12-20T01:20:47;13.80;87.30
28071;DHT22;15383;48.408;9.968;2022-12-20T01:23:13;13.80;87.40
28071;DHT22;15383;48.408;9.968;2022-12-20T01:25:38;13.80;87.40
28071;DHT22;15383;48.408;9.968;2022-12-20T01:28:04;13.70;87.40
28071;DHT22;15383;48.408;9.968;2022-12-20T01:30:29;13.80;87.50
28071;DHT22;15383;48.408;9.968;2022-12-20T01:32:55;13.70;87.40
28071;DHT22;15383;48.408;9.968;2022-12-20T01:35:20;13.70;87.30
28071;DHT22;15383;48.408;9.968;2022-12-20T01:37:46;13.70;87.40
28071;DHT22;15383;48.408;9.968;2022-12-20T01:40:11;13.70;87.40
28071;DHT22;15383;48.408;9.968;2022-12-20T01:42:37;13.70;87.40
28071;DHT22;15383;48.408;9.968;2022-12-20T01:45:08;13.70;87.40
28071;DHT22;15383;48.408;9.968;2022-12-20T01:47:37;13.70;87.30
28071;DHT22;15383;48.408;9.968;2022-12-20T01:50:07;13.70;87.30
28071;DHT22;15383;48.408;9.968;2022-12-20T01:52:37;13.80;87.20
28071;DHT22;15383;48.408;9.968;2022-12-20T01:55:25;13.80;87.30
28071;DHT22;15383;48.408;9.968;2022-12-20T01:57:57;13.80;87.50
28071;DHT22;15383;48.408;9.968;2022-12-20T02:00:25;13.80;87.50
28071;DHT22;15383;48.408;9.968;2022-12-20T02:02:52;13.70;87.60
28071;DHT22;15383;48.408;9.968;2022-12-20T02:05:20;13.70;87.70
28071;DHT22;15383;48.408;9.968;2022-12-20T02:07:49;13.70;87.80
28071;DHT22;15383;48.408;9.968;2022-12-20T02:10:20;13.70;87.80
28071;DHT22;15383;48.408;9.968;2022-12-20T02:12:47;13.70;87.70
28071;DHT22;15383;48.408;9.968;2022-12-20T02:18:21;13.70;87.90
28071;DHT22;15383;48.408;9.968;2022-12-20T02:21:21;13.60;87.70
28071;DHT22;15383;48.408;9.968;2022-12-20T02:31:41;13.70;87.80
28071;DHT22;15383;48.408;9.968;2022-12-20T02:34:09;13.60;87.70
28071;DHT22;15383;48.408;9.968;2022-12-20T02:36:35;13.70;87.80
28071;DHT22;15383;48.408;9.968;2022-12-20T02:39:01;13.70;87.80
28071;DHT22;15383;48.408;9.968;2022-12-20T02:41:33;13.60;87.70
28071;DHT22;15383;48.408;9.968;2022-12-20T02:44:13;13.60;87.70
28071;DHT22;15383;48.408;9.968;2022-12-20T02:46:59;13.60;87.60
28071;DHT22;15383;48.408;9.968;2022-12-20T02:49:29;13.60;87.60
28071;DHT22;15383;48.408;9.968;2022-12-20T02:51:56;13.60;87.70
28071;DHT22;15383;48.408;9.968;2022-12-20T02:54:23;13.60;87.70
28071;DHT22;15383;48.408;9.968;2022-12-20T02:57:12;13.60;87.70
28071;DHT22;15383;48.408;9.968;2022-12-20T03:02:14;13.60;87.70
28071;DHT22;15383;48.408;9.968;2022-12-20T03:04:40;13.60;87.60
28071;DHT22;15383;48.408;9.968;2022-12-20T03:07:11;13.60;87.60
28071;DHT22;15383;48.408;9.968;2022-12-20T03:09:40;13.60;87.60
28071;DHT22;15383;48.408;9.968;2022-12-20T03:12:07;13.60;87.70
28071;DHT22;15383;48.408;9.968;2022-12-20T03:14:32;13.60;87.60
28071;DHT22;15383;48.408;9.968;2022-12-20T03:16:59;13.60;87.60
28071;DHT22;15383;48.408;9.968;2022-12-20T03:19:25;13.60;87.80
28071;DHT22;15383;48.408;9.968;2022-12-20T03:21:51;13.60;87.80
28071;DHT22;15383;48.408;9.968;2022-12-20T03:24:16;13.60;87.70
28071;DHT22;15383;48.408;9.968;2022-12-20T03:26:42;13.60;87.80
28071;DHT22;15383;48.408;9.968;2022-12-20T03:29:08;13.60;87.90
28071;DHT22;15383;48.408;9.968;2022-12-20T03:31:34;13.60;88.00
28071;DHT22;15383;48.408;9.968;2022-12-20T03:33:59;13.60;88.00
28071;DHT22;15383;48.408;9.968;2022-12-20T03:36:25;13.50;87.90
28071;DHT22;15383;48.408;9.968;2022-12-20T03:38:51;13.50;87.90
28071;DHT22;15383;48.408;9.968;2022-12-20T03:41:18;13.50;88.10
28071;DHT22;15383;48.408;9.968;2022-12-20T03:43:45;13.50;88.10
28071;DHT22;15383;48.408;9.968;2022-12-20T03:46:11;13.50;88.10
28071;DHT22;15383;48.408;9.968;2022-12-20T03:48:36;13.50;88.20
28071;DHT22;15383;48.408;9.968;2022-12-20T03:51:02;13.50;88.30
28071;DHT22;15383;48.408;9.968;2022-12-20T03:53:28;13.50;88.40
28071;DHT22;15383;48.408;9.968;2022-12-20T03:55:54;13.50;88.20
28071;DHT22;15383;48.408;9.968;2022-12-20T03:58:19;13.50;88.30
28071;DHT22;15383;48.408;9.968;2022-12-20T04:00:45;13.50;88.30
28071;DHT22;15383;48.408;9.968;2022-12-20T04:03:10;13.50;88.30
28071;DHT22;15383;48.408;9.968;2022-12-20T04:05:36;13.50;88.20
28071;DHT22;15383;48.408;9.968;2022-12-20T04:08:01;13.50;88.20
28071;DHT22;15383;48.408;9.968;2022-12-20T04:10:27;13.50;88.20
28071;DHT22;15383;48.408;9.968;2022-12-20T04:12:52;13.50;88.20
28071;DHT22;15383;48.408;9.968;2022-12-20T04:15:18;13.50;88.10
28071;DHT22;15383;48.408;9.968;2022-12-20T04:17:44;13.40;88.20
28071;DHT22;15383;48.408;9.968;2022-12-20T04:20:13;13.40;88.20
28071;DHT22;15383;48.408;9.968;2022-12-20T04:22:50;13.40;88.20
28071;DHT22;15383;48.408;9.968;2022-12-20T04:25:17;13.40;88.10
28071;DHT22;15383;48.408;9.968;2022-12-20T04:27:43;13.40;88.10
28071;DHT22;15383;48.408;9.968;2022-12-20T04:30:10;13.40;88.00
28071;DHT22;15383;48.408;9.968;2022-12-20T04:32:36;13.40;88.00
28071;DHT22;15383;48.408;9.968;2022-12-20T04:35:02;13.50;88.10
28071;DHT22;15383;48.408;9.968;2022-12-20T04:37:28;13.40;87.90
28071;DHT22;15383;48.408;9.968;2022-12-20T04:39:55;13.50;87.90
28071;DHT22;15383;48.408;9.968;2022-12-20T04:42:21;13.50;88.10
28071;DHT22;15383;48.408;9.968;2022-12-20T04:44:46;13.50;88.10
28071;DHT22;15383;48.408;9.968;2022-12-20T04:47:12;13.50;88.40
28071;DHT22;15383;48.408;9.968;2022-12-20T04:49:37;13.50;88.40
28071;DHT22;15383;48.408;9.968;2022-12-20T04:52:03;13.40;88.40
28071;DHT22;15383;48.408;9.968;2022-12-20T04:54:47;13.40;88.50
28071;DHT22;15383;48.408;9.968;2022-12-20T04:57:13;13.40;88.50
28071;DHT22;15383;48.408;9.968;2022-12-20T04:59:38;13.40;88.40
28071;DHT22;15383;48.408;9.968;2022-12-20T05:02:04;13.40;88.30
28071;DHT22;15383;48.408;9.968;2022-12-20T05:04:30;13.40;88.50
28071;DHT22;15383;48.408;9.968;2022-12-20T05:06:55;13.40;88.60
28071;DHT22;15383;48.408;9.968;2022-12-20T05:09:21;13.40;88.60
28071;DHT22;15383;48.408;9.968;2022-12-20T05:11:48;13.40;88.50
28071;DHT22;15383;48.408;9.968;2022-12-20T05:14:13;13.40;88.40
28071;DHT22;15383;48.408;9.968;2022-12-20T05:16:39;13.40;88.20
28071;DHT22;15383;48.408;9.968;2022-12-20T05:19:04;13.50;88.20
28071;DHT22;15383;48.408;9.968;2022-12-20T05:21:30;13.50;88.30
28071;DHT22;15383;48.408;9.968;2022-12-20T05:24:14;13.50;88.40
28071;DHT22;15383;48.408;9.968;2022-12-20T05:26:58;13.50;88.50
28071;DHT22;15383;48.408;9.968;2022-12-20T05:29:24;13.50;88.60
28071;DHT22;15383;48.408;9.968;2022-12-20T05:31:49;13.50;88.70
28071;DHT22;15383;48.408;9.968;2022-12-20T05:34:15;13.50;88.70
28071;DHT22;15383;48.408;9.968;2022-12-20T05:36:41;13.50;88.60
28071;DHT22;15383;48.408;9.968;2022-12-20T05:39:06;13.60;88.70
28071;DHT22;15383;48.408;9.968;2022-12-20T05:41:32;13.60;88.60
28071;DHT22;15383;48.408;9.968;2022-12-20T05:43:57;13.60;88.70
28071;DHT22;15383;48.408;9.968;2022-12-20T05:46:23;13.60;88.70
28071;DHT22;15383;48.408;9.968;2022-12-20T05:48:49;13.60;88.60
28071;DHT22;15383;48.408;9.968;2022-12-20T05:51:14;13.70;88.70
28071;DHT22;15383;48.408;9.968;2022-12-20T05:53:40;13.70;88.60
28071;DHT22;15383;48.408;9.968;2022-12-20T05:56:05;13.70;88.60
28071;DHT22;15383;48.408;9.968;2022-12-20T05:58:31;13.70;88.60
28071;DHT22;15383;48.408;9.968;2022-12-20T06:01:00;13.70;88.50
28071;DHT22;15383;48.408;9.968;2022-12-20T06:03:26;13.70;88.60
28071;DHT22;15383;48.408;9.968;2022-12-20T06:05:51;13.70;88.50
28071;DHT22;15383;48.408;9.968;2022-12-20T06:08:17;13.70;88.50
28071;DHT22;15383;48.408;9.968;2022-12-20T06:10:43;13.70;88.60
28071;DHT22;15383;48.408;9.968;2022-12-20T06:13:09;13.70;88.50
28071;DHT22;15383;48.408;9.968;2022-12-20T06:15:34;13.80;88.60
28071;DHT22;15383;48.408;9.968;2022-12-20T06:18:00;13.70;88.70
28071;DHT22;15383;48.408;9.968;2022-12-20T06:20:25;13.70;88.70
28071;DHT22;15383;48.408;9.968;2022-12-20T06:22:51;13.70;88.70
28071;DHT22;15383;48.408;9.968;2022-12-20T06:25:17;13.70;88.70
28071;DHT22;15383;48.408;9.968;2022-12-20T06:27:43;13.70;88.90
28071;DHT22;15383;48.408;9.968;2022-12-20T06:30:09;13.70;88.80
28071;DHT22;15383;48.408;9.968;2022-12-20T06:32:35;13.70;88.70
28071;DHT22;15383;48.408;9.968;2022-12-20T06:35:01;13.70;88.70
28071;DHT22;15383;48.408;9.968;2022-12-20T06:37:26;13.70;88.70
28071;DHT22;15383;48.408;9.968;2022-12-20T06:39:52;13.70;88.50
28071;DHT22;15383;48.408;9.968;2022-12-20T06:42:17;13.70;88.60
28071;DHT22;15383;48.408;9.968;2022-12-20T06:44:43;13.70;88.70
28071;DHT22;15383;48.408;9.968;2022-12-20T06:47:09;13.70;88.60
28071;DHT22;15383;48.408;9.968;2022-12-20T06:49:34;13.80;89.30
28071;DHT22;15383;48.408;9.968;2022-12-20T06:52:00;13.80;89.10
28071;DHT22;15383;48.408;9.968;2022-12-20T06:54:25;13.80;89.10
28071;DHT22;15383;48.408;9.968;2022-12-20T06:56:51;13.70;89.10
28071;DHT22;15383;48.408;9.968;2022-12-20T06:59:17;13.80;89.10
28071;DHT22;15383;48.408;9.968;2022-12-20T07:01:42;13.80;89.20
28071;DHT22;15383;48.408;9.968;2022-12-20T07:04:09;13.70;89.30
28071;DHT22;15383;48.408;9.968;2022-12-20T07:06:34;13.70;89.30
28071;DHT22;15383;48.408;9.968;2022-12-20T07:09:01;13.80;89.30
28071;DHT22;15383;48.408;9.968;2022-12-20T07:11:26;13.80;89.20
28071;DHT22;15383;48.408;9.968;2022-12-20T07:13:56;13.80;89.20
28071;DHT22;15383;48.408;9.968;2022-12-20T07:16:22;13.80;89.20
28071;DHT22;15383;48.408;9.968;2022-12-20T07:18:53;13.90;89.20
28071;DHT22;15383;48.408;9.968;2022-12-20T07:21:20;13.90;89.20
28071;DHT22;15383;48.408;9.968;2022-12-20T07:23:46;13.90;89.20
28071;DHT22;15383;48.408;9.968;2022-12-20T07:26:13;13.90;89.10
28071;DHT22;15383;48.408;9.968;2022-12-20T07:28:39;13.90;89.10
28071;DHT22;15383;48.408;9.968;2022-12-20T07:31:05;13.90;89.00
28071;DHT22;15383;48.408;9.968;2022-12-20T07:33:31;14.00;89.00
28071;DHT22;15383;48.408;9.968;2022-12-20T07:36:15;14.00;89.00
28071;DHT22;15383;48.408;9.968;2022-12-20T07:38:41;14.00;89.00
28071;DHT22;15383;48.408;9.968;2022-12-20T07:41:12;14.00;89.00
28071;DHT22;15383;48.408;9.968;2022-12-20T07:43:39;14.00;89.00
28071;DHT22;15383;48.408;9.968;2022-12-20T07:46:05;14.00;88.80
28071;DHT22;15383;48.408;9.968;2022-12-20T07:48:31;14.00;89.60
28071;DHT22;15383;48.408;9.968;2022-12-20T07:51:05;14.00;88.90
28071;DHT22;15383;48.408;9.968;2022-12-20T07:53:33;14.00;88.80
28071;DHT22;15383;48.408;9.968;2022-12-20T07:56:00;14.00;88.90
28071;DHT22;15383;48.408;9.968;2022-12-20T07:58:26;14.00;88.90
28071;DHT22;15383;48.408;9.968;2022-12-20T08:00:53;14.00;88.80
28071;DHT22;15383;48.408;9.968;2022-12-20T08:03:22;14.00;88.80
28071;DHT22;15383;48.408;9.968;2022-12-20T08:05:53;14.00;88.70
28071;DHT22;15383;48.408;9.968;2022-12-20T08:08:21;14.10;88.60
28071;DHT22;15383;48.408;9.968;2022-12-20T08:10:47;14.00;88.40
28071;DHT22;15383;48.408;9.968;2022-12-20T08:13:14;14.10;88.40
28071;DHT22;15383;48.408;9.968;2022-12-20T08:15:39;14.10;88.30
28071;DHT22;15383;48.408;9.968;2022-12-20T08:18:05;14.10;88.30
28071;DHT22;15383;48.408;9.968;2022-12-20T08:20:31;14.10;88.30
28071;DHT22;15383;48.408;9.968;2022-12-20T08:22:57;14.10;88.30
28071;DHT22;15383;48.408;9.968;2022-12-20T08:25:22;14.10;88.20
28071;DHT22;15383;48.408;9.968;2022-12-20T08:27:48;14.10;88.10
28071;DHT22;15383;48.408;9.968;2022-12-20T08:30:14;14.10;88.00
28071;DHT22;15383;48.408;9.968;2022-12-20T08:32:40;14.10;87.90
28071;DHT22;15383;48.408;9.968;2022-12-20T08:35:07;14.10;87.90
28071;DHT22;15383;48.408;9.968;2022-12-20T08:37:32;14.10;88.00
28071;DHT22;15383;48.408;9.968;2022-12-20T08:39:58;14.10;87.70
28071;DHT22;15383;48.408;9.968;2022-12-20T08:42:25;14.10;87.70
28071;DHT22;15383;48.408;9.968;2022-12-20T08:44:51;14.20;87.50
28071;DHT22;15383;48.408;9.968;2022-12-20T08:47:17;14.20;87.30
28071;DHT22;15383;48.408;9.968;2022-12-20T08:49:42;14.20;87.20
28071;DHT22;15383;48.408;9.968;2022-12-20T08:52:08;14.20;87.10
28071;DHT22;15383;48.408;9.968;2022-12-20T08:54:33;14.20;86.90
28071;DHT22;15383;48.408;9.968;2022-12-20T08:56:59;14.20;87.60
28071;DHT22;15383;48.408;9.968;2022-12-20T08:59:24;14.30;86.80
28071;DHT22;15383;48.408;9.968;2022-12-20T09:01:51;14.30;86.70
28071;DHT22;15383;48.408;9.968;2022-12-20T09:04:18;14.30;86.80
28071;DHT22;15383;48.408;9.968;2022-12-20T09:06:44;14.40;86.70
28071;DHT22;15383;48.408;9.968;2022-12-20T09:09:09;14.30;86.70
28071;DHT22;15383;48.408;9.968;2022-12-20T09:11:35;14.30;86.70
28071;DHT22;15383;48.408;9.968;2022-12-20T09:14:01;14.40;86.70
28071;DHT22;15383;48.408;9.968;2022-12-20T09:16:29;14.30;86.80
28071;DHT22;15383;48.408;9.968;2022-12-20T09:18:56;14.40;86.90
28071;DHT22;15383;48.408;9.968;2022-12-20T09:21:22;14.30;87.00
28071;DHT22;15383;48.408;9.968;2022-12-20T09:23:55;14.30;87.00
28071;DHT22;15383;48.408;9.968;2022-12-20T09:26:21;14.30;87.00
28071;DHT22;15383;48.408;9.968;2022-12-20T09:28:48;14.30;87.10
28071;DHT22;15383;48.408;9.968;2022-12-20T09:31:16;14.30;87.10
28071;DHT22;15383;48.408;9.968;2022-12-20T09:33:42;14.20;87.10
28071;DHT22;15383;48.408;9.968;2022-12-20T09:36:17;14.30;87.00
28071;DHT22;15383;48.408;9.968;2022-12-20T09:38:43;14.30;86.80
28071;DHT22;15383;48.408;9.968;2022-12-20T09:44:10;14.30;86.50
28071;DHT22;15383;48.408;9.968;2022-12-20T09:46:39;14.30;86.50
28071;DHT22;15383;48.408;9.968;2022-12-20T09:49:05;14.30;86.50
28071;DHT22;15383;48.408;9.968;2022-12-20T09:51:54;14.40;86.40
28071;DHT22;15383;48.408;9.968;2022-12-20T09:57:26;14.50;87.10
28071;DHT22;15383;48.408;9.968;2022-12-20T09:59:55;14.50;86.80
28071;DHT22;15383;48.408;9.968;2022-12-20T10:02:23;14.50;86.70
28071;DHT22;15383;48.408;9.968;2022-12-20T10:04:50;14.50;86.60
28071;DHT22;15383;48.408;9.968;2022-12-20T10:07:38;14.50;87.30
28071;DHT22;15383;48.408;9.968;2022-12-20T10:15:29;14.60;86.50
28071;DHT22;15383;48.408;9.968;2022-12-20T10:18:19;14.50;86.40
28071;DHT22;15383;48.408;9.968;2022-12-20T10:21:06;14.60;86.20
28071;DHT22;15383;48.408;9.968;2022-12-20T10:23:41;14.60;86.10
28071;DHT22;15383;48.408;9.968;2022-12-20T10:26:11;14.60;86.00
28071;DHT22;15383;48.408;9.968;2022-12-20T10:28:37;14.60;85.90
28071;DHT22;15383;48.408;9.968;2022-12-20T10:31:12;14.70;85.80
28071;DHT22;15383;48.408;9.968;2022-12-20T10:33:38;14.70;85.70
28071;DHT22;15383;48.408;9.968;2022-12-20T10:36:30;14.70;85.60
28071;DHT22;15383;48.408;9.968;2022-12-20T10:38:58;14.70;85.50
28071;DHT22;15383;48.408;9.968;2022-12-20T10:41:44;14.80;85.40
28071;DHT22;15383;48.408;9.968;2022-12-20T10:44:28;14.80;85.40
28071;DHT22;15383;48.408;9.968;2022-12-20T10:46:56;14.80;85.20
28071;DHT22;15383;48.408;9.968;2022-12-20T10:49:36;14.80;85.10
28071;DHT22;15383;48.408;9.968;2022-12-20T10:52:10;13.10;71.90
28071;DHT22;15383;48.408;9.968;2022-12-20T10:54:45;13.20;82.90
28071;DHT22;15383;48.408;9.968;2022-12-20T10:57:20;13.90;76.60
28071;DHT22;15383;48.408;9.968;2022-12-20T10:59:53;14.30;70.80
28071;DHT22;15383;48.408;9.968;2022-12-20T11:02:33;14.20;66.90
28071;DHT22;15383;48.408;9.968;2022-12-20T11:07:29;14.60;70.40
28071;DHT22;15383;48.408;9.968;2022-12-20T11:09:58;14.70;70.90
28071;DHT22;15383;48.408;9.968;2022-12-20T11:12:25;14.80;71.40
28071;DHT22;15383;48.408;9.968;2022-12-20T11:15:07;14.80;72.00
28071;DHT22;15383;48.408;9.968;2022-12-20T11:20:19;15.00;73.20
28071;DHT22;15383;48.408;9.968;2022-12-20T11:37:24;15.20;76.60
28071;DHT22;15383;48.408;9.968;2022-12-20T11:55:55;15.30;79.10
28071;DHT22;15383;48.408;9.968;2022-12-20T11:58:45;15.30;79.40
28071;DHT22;15383;48.408;9.968;2022-12-20T12:01:16;15.30;79.50
28071;DHT22;15383;48.408;9.968;2022-12-20T12:04:21;15.40;79.70
28071;DHT22;15383;48.408;9.968;2022-12-20T12:07:01;15.40;79.90
28071;DHT22;15383;48.408;9.968;2022-12-20T12:09:58;15.40;80.00
28071;DHT22;15383;48.408;9.968;2022-12-20T12:12:33;15.40;80.00
28071;DHT22;15383;48.408;9.968;2022-12-20T12:18:10;15.40;80.20
28071;DHT22;15383;48.408;9.968;2022-12-20T12:26:30;15.40;80.50
28071;DHT22;15383;48.408;9.968;2022-12-20T12:29:02;15.50;80.70
28071;DHT22;15383;48.408;9.968;2022-12-20T12:31:41;15.50;80.70
28071;DHT22;15383;48.408;9.968;2022-12-20T12:45:02;15.50;81.20
28071;DHT22;15383;48.408;9.968;2022-12-20T12:48:12;15.50;81.50
28071;DHT22;15383;48.408;9.968;2022-12-20T12:50:28;15.50;81.70
28071;DHT22;15383;48.408;9.968;2022-12-20T12:52:57;15.50;81.60
28071;DHT22;15383;48.408;9.968;2022-12-20T12:55:49;15.50;81.60
28071;DHT22;15383;48.408;9.968;2022-12-20T13:00:59;15.50;81.60
28071;DHT22;15383;48.408;9.968;2022-12-20T13:11:47;15.50;81.90
28071;DHT22;15383;48.408;9.968;2022-12-20T13:22:14;15.50;82.10
28071;DHT22;15383;48.408;9.968;2022-12-20T13:25:02;15.50;82.20
28071;DHT22;15383;48.408;9.968;2022-12-20T13:27:32;15.60;82.30
28071;DHT22;15383;48.408;9.968;2022-12-20T13:36:03;15.60;82.70
28071;DHT22;15383;48.408;9.968;2022-12-20T13:38:38;15.60;83.00
28071;DHT22;15383;48.408;9.968;2022-12-20T13:41:28;15.60;83.20
28071;DHT22;15383;48.408;9.968;2022-12-20T13:43:57;15.60;84.10
28071;DHT22;15383;48.408;9.968;2022-12-20T13:54:32;15.70;83.80
28071;DHT22;15383;48.408;9.968;2022-12-20T13:56:57;15.60;83.60
28071;DHT22;15383;48.408;9.968;2022-12-20T13:59:25;15.70;84.00
28071;DHT22;15383;48.408;9.968;2022-12-20T14:01:56;15.60;83.90
28071;DHT22;15383;48.408;9.968;2022-12-20T14:04:24;15.70;83.80
28071;DHT22;15383;48.408;9.968;2022-12-20T14:06:59;15.60;83.60
28071;DHT22;15383;48.408;9.968;2022-12-20T14:09:32;15.60;83.60
28071;DHT22;15383;48.408;9.968;2022-12-20T14:12:06;15.60;83.70
28071;DHT22;15383;48.408;9.968;2022-12-20T14:14:37;15.60;83.80
28071;DHT22;15383;48.408;9.968;2022-12-20T14:17:26;15.60;83.90
28071;DHT22;15383;48.408;9.968;2022-12-20T14:23:02;15.60;84.20
28071;DHT22;15383;48.408;9.968;2022-12-20T14:28:31;15.60;84.30
28071;DHT22;15383;48.408;9.968;2022-12-20T14:31:01;15.60;84.30
28071;DHT22;15383;48.408;9.968;2022-12-20T14:33:28;15.60;84.40
28071;DHT22;15383;48.408;9.968;2022-12-20T14:35:54;15.70;84.50
28071;DHT22;15383;48.408;9.968;2022-12-20T14:38:23;15.70;84.50
28071;DHT22;15383;48.408;9.968;2022-12-20T14:40:52;15.70;84.60
28071;DHT22;15383;48.408;9.968;2022-12-20T14:43:26;15.70;84.50
28071;DHT22;15383;48.408;9.968;2022-12-20T14:46:18;15.70;84.50
28071;DHT22;15383;48.408;9.968;2022-12-20T14:48:44;15.70;84.50
28071;DHT22;15383;48.408;9.968;2022-12-20T14:51:12;15.70;84.50
28071;DHT22;15383;48.408;9.968;2022-12-20T14:53:38;15.80;84.60
28071;DHT22;15383;48.408;9.968;2022-12-20T14:56:05;15.80;84.60
28071;DHT22;15383;48.408;9.968;2022-12-20T14:58:36;15.80;84.60
28071;DHT22;15383;48.408;9.968;2022-12-20T15:03:56;15.80;84.60
28071;DHT22;15383;48.408;9.968;2022-12-20T15:06:43;15.80;84.70
28071;DHT22;15383;48.408;9.968;2022-12-20T15:09:10;15.80;84.80
28071;DHT22;15383;48.408;9.968;2022-12-20T15:11:36;15.80;84.80
28071;DHT22;15383;48.408;9.968;2022-12-20T15:14:30;15.80;84.90
28071;DHT22;15383;48.408;9.968;2022-12-20T15:16:52;15.70;84.90
28071;DHT22;15383;48.408;9.968;2022-12-20T15:19:18;15.70;85.00
28071;DHT22;15383;48.408;9.968;2022-12-20T15:21:44;15.80;85.10
28071;DHT22;15383;48.408;9.968;2022-12-20T15:24:18;15.80;85.10
28071;DHT22;15383;48.408;9.968;2022-12-20T15:26:47;15.80;85.10
28071;DHT22;15383;48.408;9.968;2022-12-20T15:29:22;15.80;85.20
28071;DHT22;15383;48.408;9.968;2022-12-20T15:31:49;15.80;85.20
28071;DHT22;15383;48.408;9.968;2022-12-20T15:34:28;15.80;85.10
28071;DHT22;15383;48.408;9.968;2022-12-20T15:36:55;15.80;85.10
28071;DHT22;15383;48.408;9.968;2022-12-20T15:39:25;15.80;85.10
28071;DHT22;15383;48.408;9.968;2022-12-20T15:41:51;15.80;85.20
28071;DHT22;15383;48.408;9.968;2022-12-20T15:44:22;15.80;85.20
28071;DHT22;15383;48.408;9.968;2022-12-20T15:46:49;15.80;85.20
28071;DHT22;15383;48.408;9.968;2022-12-20T15:49:17;15.80;85.10
28071;DHT22;15383;48.408;9.968;2022-12-20T15:51:44;15.80;85.10
28071;DHT22;15383;48.408;9.968;2022-12-20T15:54:31;15.80;85.10
28071;DHT22;15383;48.408;9.968;2022-12-20T15:56:59;15.80;85.10
28071;DHT22;15383;48.408;9.968;2022-12-20T15:59:27;15.90;85.10
28071;DHT22;15383;48.408;9.968;2022-12-20T16:01:53;15.90;85.00
28071;DHT22;15383;48.408;9.968;2022-12-20T16:04:20;15.90;85.00
28071;DHT22;15383;48.408;9.968;2022-12-20T16:06:48;15.90;85.00
28071;DHT22;15383;48.408;9.968;2022-12-20T16:09:15;15.90;84.90
28071;DHT22;15383;48.408;9.968;2022-12-20T16:11:41;15.90;84.90
28071;DHT22;15383;48.408;9.968;2022-12-20T16:14:16;15.90;84.80
28071;DHT22;15383;48.408;9.968;2022-12-20T16:16:42;15.80;84.80
28071;DHT22;15383;48.408;9.968;2022-12-20T16:19:09;15.80;84.60
28071;DHT22;15383;48.408;9.968;2022-12-20T16:21:44;15.90;84.70
28071;DHT22;15383;48.408;9.968;2022-12-20T16:24:12;15.90;84.60
28071;DHT22;15383;48.408;9.968;2022-12-20T16:26:38;15.80;84.60
28071;DHT22;15383;48.408;9.968;2022-12-20T16:29:04;15.80;85.30
28071;DHT22;15383;48.408;9.968;2022-12-20T16:31:35;15.80;84.50
28071;DHT22;15383;48.408;9.968;2022-12-20T16:34:03;15.80;84.50
28071;DHT22;15383;48.408;9.968;2022-12-20T16:36:29;15.80;84.60
28071;DHT22;15383;48.408;9.968;2022-12-20T16:38:55;15.80;85.30
28071;DHT22;15383;48.408;9.968;2022-12-20T16:41:23;15.80;84.60
28071;DHT22;15383;48.408;9.968;2022-12-20T16:43:50;15.80;85.30
28071;DHT22;15383;48.408;9.968;2022-12-20T16:46:20;15.80;84.60
28071;DHT22;15383;48.408;9.968;2022-12-20T16:48:46;15.80;84.60
28071;DHT22;15383;48.408;9.968;2022-12-20T16:51:25;15.80;84.70
28071;DHT22;15383;48.408;9.968;2022-12-20T16:54:01;15.80;84.70
28071;DHT22;15383;48.408;9.968;2022-12-20T16:56:28;15.80;84.80
28071;DHT22;15383;48.408;9.968;2022-12-20T16:58:55;15.80;85.00
28071;DHT22;15383;48.408;9.968;2022-12-20T17:01:25;15.80;85.10
28071;DHT22;15383;48.408;9.968;2022-12-20T17:03:52;15.80;85.50
28071;DHT22;15383;48.408;9.968;2022-12-20T17:06:18;15.90;85.60
28071;DHT22;15383;48.408;9.968;2022-12-20T17:08:44;15.90;85.40
28071;DHT22;15383;48.408;9.968;2022-12-20T17:11:22;15.90;85.20
28071;DHT22;15383;48.408;9.968;2022-12-20T17:13:49;15.90;85.20
28071;DHT22;15383;48.408;9.968;2022-12-20T17:16:16;15.90;85.10
28071;DHT22;15383;48.408;9.968;2022-12-20T17:18:46;15.90;85.10
28071;DHT22;15383;48.408;9.968;2022-12-20T17:21:23;15.90;85.10
28071;DHT22;15383;48.408;9.968;2022-12-20T17:23:51;15.90;85.10
28071;DHT22;15383;48.408;9.968;2022-12-20T17:26:19;15.90;85.00
28071;DHT22;15383;48.408;9.968;2022-12-20T17:28:46;15.90;85.00
28071;DHT22;15383;48.408;9.968;2022-12-20T17:33:47;15.80;85.00
28071;DHT22;15383;48.408;9.968;2022-12-20T17:36:12;15.80;84.90
28071;DHT22;15383;48.408;9.968;2022-12-20T17:38:38;15.80;84.90
28071;DHT22;15383;48.408;9.968;2022-12-20T17:41:04;15.80;85.00
28071;DHT22;15383;48.408;9.968;2022-12-20T17:43:30;15.80;85.00
28071;DHT22;15383;48.408;9.968;2022-12-20T17:45:55;15.80;85.00
28071;DHT22;15383;48.408;9.968;2022-12-20T17:48:21;15.80;85.00